sensor_id;sensor_type;location;lat;lon;timestamp;pressure;altitude;pressure_sealevel;temperature;humidity
74242;BME280;62599;49.146;10.426;2023-04-26T00:00:43;95706.22;;;2.21;100.00
74242;BME280;62599;49.146;10.426;2023-04-26T00:03:12;95705.13;;;2.27;100.00
74242;BME280;62599;49.146;10.426;2023-04-26T00:05:48;95700.34;;;2.24;100.00
74242;BME280;62599;49.146;10.426;2023-04-26T00:08:20;95703.84;;;2.19;100.00
74242;BME280;62599;49.146;10.426;2023-04-26T00:10:56;95695.94;;;2.09;100.00
74242;BME280;62599;49.146;10.426;2023-04-26T00:13:32;95696.25;;;2.02;100.00
74242;BME280;62599;49.146;10.426;2023-04-26T00:16:03;95694.94;;;2.00;100.00
74242;BME280;62599;49.146;10.426;2023-04-26T00:18:41;95696.84;;;1.94;100.00
74242;BME280;62599;49.146;10.426;2023-04-26T00:21:28;95688.94;;;1.84;100.00
74242;BME280;62599;49.146;10.426;2023-04-26T00:24:03;95689.00;;;1.79;100.00
74242;BME280;62599;49.146;10.426;2023-04-26T00:27:05;95694.84;;;1.76;100.00
74242;BME280;62599;49.146;10.426;2023-04-26T00:29:34;95700.69;;;1.73;100.00
74242;BME280;62599;49.146;10.426;2023-04-26T00:32:04;95696.22;;;1.68;100.00
74242;BME280;62599;49.146;10.426;2023-04-26T00:34:37;95705.22;;;1.72;100.00
74242;BME280;62599;49.146;10.426;2023-04-26T00:37:08;95699.13;;;1.66;100.00
74242;BME280;62599;49.146;10.426;2023-04-26T00:42:31;95691.16;;;1.66;100.00
74242;BME280;62599;49.146;10.426;2023-04-26T00:44:57;95716.09;;;1.71;100.00
74242;BME280;62599;49.146;10.426;2023-04-26T00:47:39;95705.28;;;1.62;100.00
74242;BME280;62599;49.146;10.426;2023-04-26T00:53:15;95697.34;;;1.57;100.00
74242;BME280;62599;49.146;10.426;2023-04-26T00:55:42;95698.69;;;1.54;100.00
74242;BME280;62599;49.146;10.426;2023-04-26T00:58:14;95701.38;;;1.49;100.00
74242;BME280;62599;49.146;10.426;2023-04-26T01:00:42;95704.03;;;1.44;100.00
74242;BME280;62599;49.146;10.426;2023-04-26T01:03:08;95715.19;;;1.46;100.00
74242;BME280;62599;49.146;10.426;2023-04-26T01:09:04;95721.53;;;1.45;100.00
74242;BME280;62599;49.146;10.426;2023-04-26T01:11:59;95717.03;;;1.46;100.00
74242;BME280;62599;49.146;10.426;2023-04-26T01:14:25;95713.06;;;1.43;100.00
74242;BME280;62599;49.146;10.426;2023-04-26T01:20:39;95712.53;;;1.46;100.00
74242;BME280;62599;49.146;10.426;2023-04-26T01:23:31;95705.63;;;1.40;100.00
74242;BME280;62599;49.146;10.426;2023-04-26T01:26:43;95707.00;;;1.32;100.00
74242;BME280;62599;49.146;10.426;2023-04-26T01:29:51;95717.38;;;1.29;100.00
74242;BME280;62599;49.146;10.426;2023-04-26T01:33:08;95723.22;;;1.31;100.00
74242;BME280;62599;49.146;10.426;2023-04-26T01:35:43;95712.34;;;1.22;100.00
74242;BME280;62599;49.146;10.426;2023-04-26T01:38:17;95711.56;;;1.22;100.00
74242;BME280;62599;49.146;10.426;2023-04-26T01:40:57;95707.81;;;1.23;100.00
74242;BME280;62599;49.146;10.426;2023-04-26T01:47:00;95720.31;;;1.27;100.00
74242;BME280;62599;49.146;10.426;2023-04-26T02:00:04;95727.91;;;1.49;100.00
74242;BME280;62599;49.146;10.426;2023-04-26T02:02:42;95705.59;;;1.45;100.00
74242;BME280;62599;49.146;10.426;2023-04-26T02:05:10;95705.31;;;1.52;100.00
74242;BME280;62599;49.146;10.426;2023-04-26T02:08:05;95711.91;;;1.59;100.00
74242;BME280;62599;49.146;10.426;2023-04-26T02:28:29;95724.31;;;1.74;99.51
74242;BME280;62599;49.146;10.426;2023-04-26T02:31:28;95721.94;;;1.73;98.85
74242;BME280;62599;49.146;10.426;2023-04-26T02:34:00;95718.19;;;1.74;98.02
74242;BME280;62599;49.146;10.426;2023-04-26T02:36:33;95711.84;;;1.75;97.15
74242;BME280;62599;49.146;10.426;2023-04-26T02:39:49;95718.44;;;1.77;96.79
74242;BME280;62599;49.146;10.426;2023-04-26T02:46:20;95727.44;;;1.86;96.00
74242;BME280;62599;49.146;10.426;2023-04-26T02:55:45;95721.66;;;1.74;93.72
74242;BME280;62599;49.146;10.426;2023-04-26T02:59:05;95717.22;;;1.64;93.13
74242;BME280;62599;49.146;10.426;2023-04-26T03:01:27;95713.81;;;1.54;94.56
74242;BME280;62599;49.146;10.426;2023-04-26T03:03:56;95711.19;;;1.43;95.56
74242;BME280;62599;49.146;10.426;2023-04-26T03:06:21;95722.63;;;1.39;96.38
74242;BME280;62599;49.146;10.426;2023-04-26T03:08:50;95722.13;;;1.32;96.85
74242;BME280;62599;49.146;10.426;2023-04-26T03:11:15;95733.25;;;1.34;98.23
74242;BME280;62599;49.146;10.426;2023-04-26T03:13:40;95721.09;;;1.28;100.00
74242;BME280;62599;49.146;10.426;2023-04-26T03:16:09;95734.59;;;1.31;100.00
74242;BME280;62599;49.146;10.426;2023-04-26T03:18:37;95729.31;;;1.31;100.00
74242;BME280;62599;49.146;10.426;2023-04-26T03:21:02;95729.56;;;1.30;100.00
74242;BME280;62599;49.146;10.426;2023-04-26T03:23:28;95723.75;;;1.23;100.00
74242;BME280;62599;49.146;10.426;2023-04-26T03:25:53;95735.97;;;1.24;100.00
74242;BME280;62599;49.146;10.426;2023-04-26T03:28:29;95723.22;;;1.15;100.00
74242;BME280;62599;49.146;10.426;2023-04-26T03:31:24;95739.66;;;1.23;100.00
74242;BME280;62599;49.146;10.426;2023-04-26T03:33:53;95740.72;;;1.22;100.00
74242;BME280;62599;49.146;10.426;2023-04-26T03:36:21;95732.53;;;1.18;100.00
74242;BME280;62599;49.146;10.426;2023-04-26T03:38:47;95731.19;;;1.20;100.00
74242;BME280;62599;49.146;10.426;2023-04-26T03:41:13;95726.94;;;1.25;100.00
74242;BME280;62599;49.146;10.426;2023-04-26T03:44:00;95729.59;;;1.25;100.00
74242;BME280;62599;49.146;10.426;2023-04-26T03:46:34;95731.97;;;1.26;100.00
74242;BME280;62599;49.146;10.426;2023-04-26T03:49:41;95739.91;;;1.31;100.00
74242;BME280;62599;49.146;10.426;2023-04-26T03:52:16;95734.09;;;1.24;100.00
74242;BME280;62599;49.146;10.426;2023-04-26T03:54:59;95730.16;;;1.16;100.00
74242;BME280;62599;49.146;10.426;2023-04-26T03:57:39;95735.19;;;1.13;100.00
74242;BME280;62599;49.146;10.426;2023-04-26T04:00:22;95738.63;;;1.08;100.00
74242;BME280;62599;49.146;10.426;2023-04-26T04:02:57;95736.25;;;1.07;100.00
74242;BME280;62599;49.146;10.426;2023-04-26T04:05:30;95729.66;;;0.99;100.00
74242;BME280;62599;49.146;10.426;2023-04-26T04:07:55;95729.41;;;0.95;100.00
74242;BME280;62599;49.146;10.426;2023-04-26T04:10:22;95740.28;;;0.89;100.00
74242;BME280;62599;49.146;10.426;2023-04-26T04:12:48;95724.66;;;0.72;100.00
74242;BME280;62599;49.146;10.426;2023-04-26T04:15:15;95741.34;;;0.72;100.00
74242;BME280;62599;49.146;10.426;2023-04-26T04:17:53;95746.66;;;0.72;100.00
74242;BME280;62599;49.146;10.426;2023-04-26T04:20:19;95736.09;;;0.62;100.00
74242;BME280;62599;49.146;10.426;2023-04-26T04:22:45;95733.16;;;0.54;100.00
74242;BME280;62599;49.146;10.426;2023-04-26T04:25:11;95731.84;;;0.46;100.00
74242;BME280;62599;49.146;10.426;2023-04-26T04:27:38;95741.38;;;0.42;100.00
74242;BME280;62599;49.146;10.426;2023-04-26T04:30:07;95742.19;;;0.37;100.00
74242;BME280;62599;49.146;10.426;2023-04-26T04:32:34;95735.56;;;0.35;100.00
74242;BME280;62599;49.146;10.426;2023-04-26T04:35:02;95740.84;;;0.35;100.00
74242;BME280;62599;49.146;10.426;2023-04-26T04:37:35;95743.78;;;0.38;100.00
74242;BME280;62599;49.146;10.426;2023-04-26T04:40:05;95744.84;;;0.37;100.00
74242;BME280;62599;49.146;10.426;2023-04-26T04:42:34;95754.63;;;0.47;100.00
74242;BME280;62599;49.146;10.426;2023-04-26T04:45:08;95764.19;;;0.58;100.00
74242;BME280;62599;49.146;10.426;2023-04-26T04:47:41;95758.09;;;0.63;100.00
74242;BME280;62599;49.146;10.426;2023-04-26T04:50:26;95749.06;;;0.59;100.00
74242;BME280;62599;49.146;10.426;2023-04-26T04:52:56;95748.81;;;0.55;100.00
74242;BME280;62599;49.146;10.426;2023-04-26T04:55:27;95755.16;;;0.54;100.00
74242;BME280;62599;49.146;10.426;2023-04-26T04:58:23;95757.81;;;0.49;100.00
74242;BME280;62599;49.146;10.426;2023-04-26T05:00:50;95755.72;;;0.51;100.00
74242;BME280;62599;49.146;10.426;2023-04-26T05:03:18;95761.53;;;0.53;100.00
74242;BME280;62599;49.146;10.426;2023-04-26T05:05:47;95765.50;;;0.61;100.00
74242;BME280;62599;49.146;10.426;2023-04-26T05:08:13;95769.19;;;0.65;100.00
74242;BME280;62599;49.146;10.426;2023-04-26T05:10:42;95764.72;;;0.65;100.00
74242;BME280;62599;49.146;10.426;2023-04-26T05:13:09;95775.81;;;0.67;100.00
74242;BME280;62599;49.146;10.426;2023-04-26T05:15:34;95775.28;;;0.70;100.00
74242;BME280;62599;49.146;10.426;2023-04-26T05:18:00;95767.38;;;0.65;100.00
74242;BME280;62599;49.146;10.426;2023-04-26T05:20:26;95773.72;;;0.69;100.00
74242;BME280;62599;49.146;10.426;2023-04-26T05:22:51;95777.41;;;0.74;100.00
74242;BME280;62599;49.146;10.426;2023-04-26T05:25:19;95781.38;;;0.81;100.00
74242;BME280;62599;49.146;10.426;2023-04-26T05:27:45;95791.72;;;0.88;100.00
74242;BME280;62599;49.146;10.426;2023-04-26T05:30:11;95782.97;;;0.82;100.00
74242;BME280;62599;49.146;10.426;2023-04-26T05:32:37;95792.50;;;0.88;100.00
74242;BME280;62599;49.146;10.426;2023-04-26T05:35:02;95793.03;;;0.90;100.00
74242;BME280;62599;49.146;10.426;2023-04-26T05:37:29;95797.50;;;1.05;100.00
74242;BME280;62599;49.146;10.426;2023-04-26T05:39:57;95797.53;;;1.10;100.00
74242;BME280;62599;49.146;10.426;2023-04-26T05:42:31;95798.53;;;1.19;100.00
74242;BME280;62599;49.146;10.426;2023-04-26T05:45:06;95799.59;;;1.29;100.00
74242;BME280;62599;49.146;10.426;2023-04-26T05:47:53;95812.56;;;1.46;100.00
74242;BME280;62599;49.146;10.426;2023-04-26T05:50:18;95814.38;;;1.55;100.00
74242;BME280;62599;49.146;10.426;2023-04-26T05:52:44;95820.72;;;1.64;100.00
74242;BME280;62599;49.146;10.426;2023-04-26T05:55:09;95818.03;;;1.75;100.00
74242;BME280;62599;49.146;10.426;2023-04-26T05:57:34;95819.31;;;1.87;100.00
74242;BME280;62599;49.146;10.426;2023-04-26T06:00:01;95823.78;;;1.97;100.00
74242;BME280;62599;49.146;10.426;2023-04-26T06:02:27;95821.34;;;2.11;100.00
74242;BME280;62599;49.146;10.426;2023-04-26T06:04:52;95823.59;;;2.28;100.00
74242;BME280;62599;49.146;10.426;2023-04-26T06:07:18;95826.16;;;2.48;99.30
74242;BME280;62599;49.146;10.426;2023-04-26T06:09:43;95831.06;;;2.70;98.73
74242;BME280;62599;49.146;10.426;2023-04-26T06:12:08;95830.97;;;2.80;90.47
74242;BME280;62599;49.146;10.426;2023-04-26T06:14:34;95833.75;;;2.99;87.01
74242;BME280;62599;49.146;10.426;2023-04-26T06:16:59;95833.34;;;3.16;87.03
74242;BME280;62599;49.146;10.426;2023-04-26T06:19:25;95831.88;;;3.29;85.91
74242;BME280;62599;49.146;10.426;2023-04-26T06:21:50;95835.00;;;3.36;84.94
74242;BME280;62599;49.146;10.426;2023-04-26T06:24:23;95829.06;;;3.44;86.50
74242;BME280;62599;49.146;10.426;2023-04-26T06:26:49;95833.28;;;3.50;84.84
74242;BME280;62599;49.146;10.426;2023-04-26T06:29:15;95829.81;;;3.50;80.71
74242;BME280;62599;49.146;10.426;2023-04-26T06:31:41;95828.41;;;3.57;81.24
74242;BME280;62599;49.146;10.426;2023-04-26T06:34:06;95835.19;;;3.69;81.23
74242;BME280;62599;49.146;10.426;2023-04-26T06:36:31;95831.91;;;3.77;82.25
74242;BME280;62599;49.146;10.426;2023-04-26T06:38:57;95840.56;;;3.88;80.03
74242;BME280;62599;49.146;10.426;2023-04-26T06:41:22;95832.25;;;3.94;79.46
74242;BME280;62599;49.146;10.426;2023-04-26T06:43:48;95839.66;;;3.97;76.46
74242;BME280;62599;49.146;10.426;2023-04-26T06:46:13;95836.44;;;4.00;75.38
74242;BME280;62599;49.146;10.426;2023-04-26T06:48:38;95832.13;;;4.04;75.28
74242;BME280;62599;49.146;10.426;2023-04-26T06:51:05;95836.09;;;4.07;74.43
74242;BME280;62599;49.146;10.426;2023-04-26T06:53:31;95825.22;;;4.03;72.63
74242;BME280;62599;49.146;10.426;2023-04-26T06:55:59;95839.47;;;4.13;73.33
74242;BME280;62599;49.146;10.426;2023-04-26T06:58:25;95839.91;;;4.20;75.88
74242;BME280;62599;49.146;10.426;2023-04-26T07:00:50;95831.78;;;4.30;77.07
74242;BME280;62599;49.146;10.426;2023-04-26T07:03:16;95835.75;;;4.51;77.63
74242;BME280;62599;49.146;10.426;2023-04-26T07:05:41;95835.84;;;4.65;76.12
74242;BME280;62599;49.146;10.426;2023-04-26T07:08:06;95834.50;;;4.81;75.05
74242;BME280;62599;49.146;10.426;2023-04-26T07:10:32;95821.59;;;4.89;73.73
74242;BME280;62599;49.146;10.426;2023-04-26T07:12:57;95821.50;;;4.94;73.90
74242;BME280;62599;49.146;10.426;2023-04-26T07:15:23;95826.47;;;5.00;72.73
74242;BME280;62599;49.146;10.426;2023-04-26T07:17:48;95828.75;;;5.07;71.22
74242;BME280;62599;49.146;10.426;2023-04-26T07:20:13;95829.06;;;5.05;70.80
74242;BME280;62599;49.146;10.426;2023-04-26T07:22:44;95832.00;;;5.04;69.37
74242;BME280;62599;49.146;10.426;2023-04-26T07:25:09;95821.06;;;5.05;71.24
74242;BME280;62599;49.146;10.426;2023-04-26T07:27:35;95827.28;;;5.15;70.56
74242;BME280;62599;49.146;10.426;2023-04-26T07:30:00;95826.25;;;5.16;71.23
74242;BME280;62599;49.146;10.426;2023-04-26T07:32:26;95819.63;;;5.27;71.51
74242;BME280;62599;49.146;10.426;2023-04-26T07:34:51;95821.03;;;5.38;71.59
74242;BME280;62599;49.146;10.426;2023-04-26T07:37:17;95825.59;;;5.51;71.01
74242;BME280;62599;49.146;10.426;2023-04-26T07:39:43;95824.13;;;5.73;70.46
74242;BME280;62599;49.146;10.426;2023-04-26T07:42:08;95831.25;;;5.91;70.59
74242;BME280;62599;49.146;10.426;2023-04-26T07:44:33;95824.63;;;6.16;69.43
74242;BME280;62599;49.146;10.426;2023-04-26T07:46:59;95821.75;;;6.13;67.35
74242;BME280;62599;49.146;10.426;2023-04-26T07:49:24;95827.88;;;6.27;68.69
74242;BME280;62599;49.146;10.426;2023-04-26T07:51:49;95824.81;;;6.34;66.92
74242;BME280;62599;49.146;10.426;2023-04-26T07:54:16;95825.19;;;6.41;67.93
74242;BME280;62599;49.146;10.426;2023-04-26T07:56:41;95822.75;;;6.53;66.58
74242;BME280;62599;49.146;10.426;2023-04-26T07:59:06;95828.94;;;6.54;63.72
74242;BME280;62599;49.146;10.426;2023-04-26T08:01:32;95828.94;;;6.54;64.84
74242;BME280;62599;49.146;10.426;2023-04-26T08:03:58;95830.03;;;6.75;66.51
74242;BME280;62599;49.146;10.426;2023-04-26T08:06:26;95827.63;;;7.10;65.07
74242;BME280;62599;49.146;10.426;2023-04-26T08:08:53;95829.66;;;7.35;64.17
74242;BME280;62599;49.146;10.426;2023-04-26T08:11:18;95834.53;;;7.33;60.69
74242;BME280;62599;49.146;10.426;2023-04-26T08:13:44;95832.19;;;7.09;60.32
74242;BME280;62599;49.146;10.426;2023-04-26T08:16:09;95827.44;;;7.06;60.46
74242;BME280;62599;49.146;10.426;2023-04-26T08:18:35;95831.63;;;7.21;58.18
74242;BME280;62599;49.146;10.426;2023-04-26T08:21:00;95830.69;;;7.48;59.83
74242;BME280;62599;49.146;10.426;2023-04-26T08:23:26;95829.97;;;7.65;58.37
74242;BME280;62599;49.146;10.426;2023-04-26T08:25:52;95829.00;;;7.92;58.64
74242;BME280;62599;49.146;10.426;2023-04-26T08:28:18;95840.16;;;7.85;58.08
74242;BME280;62599;49.146;10.426;2023-04-26T08:30:43;95826.75;;;7.94;58.15
74242;BME280;62599;49.146;10.426;2023-04-26T08:33:09;95830.63;;;8.28;56.53
74242;BME280;62599;49.146;10.426;2023-04-26T08:35:34;95833.88;;;8.47;58.00
74242;BME280;62599;49.146;10.426;2023-04-26T08:37:59;95833.88;;;8.56;57.04
74242;BME280;62599;49.146;10.426;2023-04-26T08:40:25;95823.94;;;8.74;55.20
74242;BME280;62599;49.146;10.426;2023-04-26T08:42:51;95830.88;;;9.18;55.64
74242;BME280;62599;49.146;10.426;2023-04-26T08:45:20;95833.94;;;9.55;54.65
74242;BME280;62599;49.146;10.426;2023-04-26T08:47:51;95839.47;;;9.58;53.85
74242;BME280;62599;49.146;10.426;2023-04-26T08:50:21;95835.47;;;9.09;51.78
74242;BME280;62599;49.146;10.426;2023-04-26T08:52:49;95842.56;;;8.70;51.00
74242;BME280;62599;49.146;10.426;2023-04-26T08:55:17;95847.28;;;8.47;51.31
74242;BME280;62599;49.146;10.426;2023-04-26T08:57:47;95847.28;;;8.47;51.19
74242;BME280;62599;49.146;10.426;2023-04-26T09:00:14;95839.44;;;8.68;52.99
74242;BME280;62599;49.146;10.426;2023-04-26T09:02:41;95835.63;;;8.95;53.09
74242;BME280;62599;49.146;10.426;2023-04-26T09:05:10;95829.88;;;9.49;53.17
74242;BME280;62599;49.146;10.426;2023-04-26T09:07:44;95828.38;;;9.69;51.64
74242;BME280;62599;49.146;10.426;2023-04-26T09:10:11;95827.31;;;9.99;51.47
74242;BME280;62599;49.146;10.426;2023-04-26T09:12:37;95826.09;;;10.26;50.27
74242;BME280;62599;49.146;10.426;2023-04-26T09:15:04;95824.28;;;10.39;50.84
74242;BME280;62599;49.146;10.426;2023-04-26T09:17:32;95827.06;;;10.51;49.93
74242;BME280;62599;49.146;10.426;2023-04-26T09:19:59;95830.63;;;10.64;50.62
74242;BME280;62599;49.146;10.426;2023-04-26T09:22:35;95827.06;;;10.72;50.03
74242;BME280;62599;49.146;10.426;2023-04-26T09:25:03;95820.50;;;10.61;49.00
74242;BME280;62599;49.146;10.426;2023-04-26T09:27:39;95829.47;;;10.44;48.08
74242;BME280;62599;49.146;10.426;2023-04-26T09:30:06;95826.34;;;10.04;48.12
74242;BME280;62599;49.146;10.426;2023-04-26T09:32:49;95824.59;;;9.61;47.34
74242;BME280;62599;49.146;10.426;2023-04-26T09:35:35;95831.69;;;9.74;48.96
74242;BME280;62599;49.146;10.426;2023-04-26T09:38:03;95822.06;;;9.73;47.91
74242;BME280;62599;49.146;10.426;2023-04-26T09:40:31;95831.00;;;9.39;47.95
74242;BME280;62599;49.146;10.426;2023-04-26T09:43:04;95826.16;;;9.15;47.93
74242;BME280;62599;49.146;10.426;2023-04-26T09:45:31;95821.72;;;9.10;49.46
74242;BME280;62599;49.146;10.426;2023-04-26T09:48:29;95811.91;;;9.06;50.51
74242;BME280;62599;49.146;10.426;2023-04-26T09:50:55;95822.03;;;9.09;50.33
74242;BME280;62599;49.146;10.426;2023-04-26T09:56:04;95829.63;;;8.55;51.08
74242;BME280;62599;49.146;10.426;2023-04-26T09:58:31;95829.94;;;8.62;50.87
74242;BME280;62599;49.146;10.426;2023-04-26T10:00:57;95832.31;;;8.55;51.53
74242;BME280;62599;49.146;10.426;2023-04-26T10:03:23;95830.09;;;8.39;51.61
74242;BME280;62599;49.146;10.426;2023-04-26T10:05:49;95816.34;;;8.67;51.74
74242;BME280;62599;49.146;10.426;2023-04-26T10:08:15;95826.16;;;8.80;50.65
74242;BME280;62599;49.146;10.426;2023-04-26T10:10:41;95820.63;;;9.03;50.18
74242;BME280;62599;49.146;10.426;2023-04-26T10:13:07;95822.31;;;9.33;48.76
74242;BME280;62599;49.146;10.426;2023-04-26T10:15:32;95819.41;;;9.56;46.87
74242;BME280;62599;49.146;10.426;2023-04-26T10:17:58;95821.88;;;9.78;46.74
74242;BME280;62599;49.146;10.426;2023-04-26T10:20:27;95810.25;;;9.95;45.84
74242;BME280;62599;49.146;10.426;2023-04-26T10:22:55;95807.31;;;10.09;44.35
74242;BME280;62599;49.146;10.426;2023-04-26T10:25:39;95810.09;;;10.51;46.47
74242;BME280;62599;49.146;10.426;2023-04-26T10:28:06;95804.38;;;10.94;46.49
74242;BME280;62599;49.146;10.426;2023-04-26T10:30:32;95803.78;;;10.89;45.50
74242;BME280;62599;49.146;10.426;2023-04-26T10:35:24;95800.97;;;10.13;46.47
74242;BME280;62599;49.146;10.426;2023-04-26T10:40:30;95794.53;;;9.68;46.12
74242;BME280;62599;49.146;10.426;2023-04-26T10:45:34;95797.44;;;10.22;47.70
74242;BME280;62599;49.146;10.426;2023-04-26T10:59:07;95787.56;;;12.25;39.95
74242;BME280;62599;49.146;10.426;2023-04-26T11:01:34;95786.72;;;11.75;41.21
74242;BME280;62599;49.146;10.426;2023-04-26T11:04:09;95791.06;;;11.43;41.78
74242;BME280;62599;49.146;10.426;2023-04-26T11:06:55;95792.13;;;10.43;41.91
74242;BME280;62599;49.146;10.426;2023-04-26T11:09:39;95785.59;;;10.14;42.21
74242;BME280;62599;49.146;10.426;2023-04-26T11:12:15;95786.69;;;9.92;42.57
74242;BME280;62599;49.146;10.426;2023-04-26T11:14:41;95787.75;;;10.29;42.29
74242;BME280;62599;49.146;10.426;2023-04-26T11:17:11;95771.75;;;10.75;42.93
74242;BME280;62599;49.146;10.426;2023-04-26T11:19:36;95782.84;;;11.40;42.95
74242;BME280;62599;49.146;10.426;2023-04-26T11:22:05;95782.56;;;11.78;42.44
74242;BME280;62599;49.146;10.426;2023-04-26T11:24:31;95775.72;;;12.05;41.96
74242;BME280;62599;49.146;10.426;2023-04-26T11:27:00;95784.03;;;12.37;41.15
74242;BME280;62599;49.146;10.426;2023-04-26T11:29:28;95784.09;;;11.88;39.40
74242;BME280;62599;49.146;10.426;2023-04-26T11:31:54;95779.25;;;11.36;40.90
74242;BME280;62599;49.146;10.426;2023-04-26T11:34:40;95775.53;;;10.95;40.66
74242;BME280;62599;49.146;10.426;2023-04-26T11:37:06;95757.25;;;11.46;40.73
74242;BME280;62599;49.146;10.426;2023-04-26T11:39:41;95768.22;;;11.98;41.23
74242;BME280;62599;49.146;10.426;2023-04-26T11:42:12;95771.97;;;11.61;41.30
74242;BME280;62599;49.146;10.426;2023-04-26T11:44:39;95761.84;;;11.00;39.59
74242;BME280;62599;49.146;10.426;2023-04-26T11:47:07;95766.50;;;11.12;41.19
74242;BME280;62599;49.146;10.426;2023-04-26T11:49:37;95754.19;;;11.47;41.47
74242;BME280;62599;49.146;10.426;2023-04-26T11:52:07;95754.34;;;12.12;41.56
74242;BME280;62599;49.146;10.426;2023-04-26T11:54:44;95742.50;;;12.41;40.55
74242;BME280;62599;49.146;10.426;2023-04-26T11:57:19;95754.69;;;12.23;38.84
74242;BME280;62599;49.146;10.426;2023-04-26T12:00:16;95769.84;;;11.08;42.92
74242;BME280;62599;49.146;10.426;2023-04-26T12:02:52;95742.97;;;11.33;41.86
74242;BME280;62599;49.146;10.426;2023-04-26T12:05:23;95750.84;;;11.50;41.77
74242;BME280;62599;49.146;10.426;2023-04-26T12:07:52;95754.53;;;11.33;43.07
74242;BME280;62599;49.146;10.426;2023-04-26T12:10:39;95745.81;;;11.98;42.22
74242;BME280;62599;49.146;10.426;2023-04-26T12:13:07;95737.81;;;12.66;41.07
74242;BME280;62599;49.146;10.426;2023-04-26T12:15:41;95737.91;;;13.26;40.25
74242;BME280;62599;49.146;10.426;2023-04-26T12:18:17;95740.44;;;13.35;39.04
74242;BME280;62599;49.146;10.426;2023-04-26T12:20:43;95729.22;;;13.33;38.94
74242;BME280;62599;49.146;10.426;2023-04-26T12:26:16;95734.97;;;13.94;37.78
74242;BME280;62599;49.146;10.426;2023-04-26T12:28:42;95722.75;;;13.69;36.20
74242;BME280;62599;49.146;10.426;2023-04-26T12:31:14;95718.31;;;13.77;36.83
74242;BME280;62599;49.146;10.426;2023-04-26T12:33:40;95712.06;;;12.57;38.37
74242;BME280;62599;49.146;10.426;2023-04-26T12:36:10;95708.38;;;12.77;38.18
74242;BME280;62599;49.146;10.426;2023-04-26T12:38:46;95719.84;;;13.30;38.80
74242;BME280;62599;49.146;10.426;2023-04-26T12:41:17;95712.91;;;13.01;37.35
74242;BME280;62599;49.146;10.426;2023-04-26T12:44:16;95712.03;;;12.28;37.61
74242;BME280;62599;49.146;10.426;2023-04-26T12:46:41;95712.97;;;12.08;39.38
74242;BME280;62599;49.146;10.426;2023-04-26T12:49:13;95712.31;;;12.51;39.69
74242;BME280;62599;49.146;10.426;2023-04-26T12:51:43;95708.00;;;13.07;39.82
74242;BME280;62599;49.146;10.426;2023-04-26T12:54:17;95695.69;;;13.69;39.05
74242;BME280;62599;49.146;10.426;2023-04-26T12:56:59;95708.25;;;14.12;38.01
74242;BME280;62599;49.146;10.426;2023-04-26T12:59:46;95704.03;;;14.31;39.29
74242;BME280;62599;49.146;10.426;2023-04-26T13:02:33;95703.84;;;14.59;38.44
74242;BME280;62599;49.146;10.426;2023-04-26T13:05:21;95717.31;;;13.85;36.89
74242;BME280;62599;49.146;10.426;2023-04-26T13:07:49;95710.28;;;12.76;37.94
74242;BME280;62599;49.146;10.426;2023-04-26T13:10:15;95721.31;;;12.03;40.30
74242;BME280;62599;49.146;10.426;2023-04-26T13:12:50;95716.34;;;11.80;40.29
74242;BME280;62599;49.146;10.426;2023-04-26T13:15:27;95722.06;;;12.16;40.13
74242;BME280;62599;49.146;10.426;2023-04-26T13:18:00;95717.47;;;12.57;40.99
74242;BME280;62599;49.146;10.426;2023-04-26T13:20:32;95715.69;;;13.05;40.93
74242;BME280;62599;49.146;10.426;2023-04-26T13:22:57;95720.91;;;13.26;40.41
74242;BME280;62599;49.146;10.426;2023-04-26T13:25:23;95724.41;;;13.42;39.15
74242;BME280;62599;49.146;10.426;2023-04-26T13:27:48;95725.22;;;13.58;38.53
74242;BME280;62599;49.146;10.426;2023-04-26T13:30:17;95732.28;;;13.19;38.48
74242;BME280;62599;49.146;10.426;2023-04-26T13:32:43;95730.63;;;12.18;39.90
74242;BME280;62599;49.146;10.426;2023-04-26T13:35:11;95732.09;;;12.27;40.25
74242;BME280;62599;49.146;10.426;2023-04-26T13:37:39;95717.38;;;12.53;40.53
74242;BME280;62599;49.146;10.426;2023-04-26T13:40:30;95700.50;;;13.00;40.51
74242;BME280;62599;49.146;10.426;2023-04-26T13:43:06;95710.50;;;13.28;40.24
74242;BME280;62599;49.146;10.426;2023-04-26T13:45:38;95715.06;;;13.23;40.33
74242;BME280;62599;49.146;10.426;2023-04-26T13:51:00;95708.47;;;12.81;39.84
74242;BME280;62599;49.146;10.426;2023-04-26T13:53:37;95700.94;;;12.74;40.61
74242;BME280;62599;49.146;10.426;2023-04-26T13:56:05;95704.53;;;12.78;41.69
74242;BME280;62599;49.146;10.426;2023-04-26T13:58:32;95709.69;;;12.67;39.90
74242;BME280;62599;49.146;10.426;2023-04-26T14:01:00;95703.16;;;12.84;39.81
74242;BME280;62599;49.146;10.426;2023-04-26T14:03:26;95707.19;;;13.50;40.43
74242;BME280;62599;49.146;10.426;2023-04-26T14:05:53;95716.94;;;14.02;41.01
74242;BME280;62599;49.146;10.426;2023-04-26T14:08:18;95712.88;;;13.45;37.81
74242;BME280;62599;49.146;10.426;2023-04-26T14:10:44;95704.78;;;13.45;38.53
74242;BME280;62599;49.146;10.426;2023-04-26T14:13:15;95714.34;;;11.90;39.30
74242;BME280;62599;49.146;10.426;2023-04-26T14:16:20;95707.47;;;11.68;40.21
74242;BME280;62599;49.146;10.426;2023-04-26T14:24:30;95706.53;;;12.65;41.80
74242;BME280;62599;49.146;10.426;2023-04-26T14:27:05;95701.06;;;12.77;40.63
74242;BME280;62599;49.146;10.426;2023-04-26T14:29:51;95707.19;;;12.90;40.52
74242;BME280;62599;49.146;10.426;2023-04-26T14:32:42;95701.88;;;12.94;40.80
74242;BME280;62599;49.146;10.426;2023-04-26T14:35:11;95699.31;;;12.85;39.60
74242;BME280;62599;49.146;10.426;2023-04-26T14:38:10;95700.97;;;12.46;41.09
74242;BME280;62599;49.146;10.426;2023-04-26T14:48:16;95688.88;;;12.84;40.96
74242;BME280;62599;49.146;10.426;2023-04-26T14:50:42;95699.38;;;13.01;40.39